EDSB 192350Z AUTO 35004KT 320V020 9999 // SCT120/// BKN160/// 20/15 Q1021 EDSB 192320Z AUTO 31003KT 9999 // BKN150/// 20/15 Q1021 EDSB 192250Z AUTO VRB02KT 9999 // BKN150/// 21/15 Q1021 EDSB 192220Z AUTO 04004KT 9999 // BKN150/// 20/14 Q1021 EDSB 192120Z 05009KT CAVOK 24/15 Q1021 EDSB 192050Z 02003KT 330V040 9999 VCTS NSC 21/15 Q1021 EDSB 192020Z 23003KT CAVOK 21/15 Q1020 EDSB 191950Z 28002KT 9999 VCTS FEW050CB 24/15 Q1020 EDSB 191920Z 19004KT CAVOK 25/15 Q1019 EDSB 191850Z 22003KT CAVOK 26/15 Q1019 EDSB 191820Z 24003KT 200V270 CAVOK 27/15 Q1019 EDSB 191750Z 25005KT CAVOK 28/15 Q1019 EDSB 191720Z 24007KT 210V270 CAVOK 29/15 Q1019 EDSB 191650Z 24011KT 210V290 CAVOK 30/16 Q1019 EDSB 191620Z 28005KT 230V330 CAVOK 31/16 Q1018 EDSB 191550Z 27006KT 230V320 CAVOK 30/15 Q1018 EDSB 191520Z 27007KT 230V320 CAVOK 32/15 Q1018 EDSB 191450Z 24009KT 200V310 CAVOK 32/14 Q1018 EDSB 191420Z 22010KT 180V250 CAVOK 32/13 Q1018 EDSB 191350Z 21007KT 160V250 CAVOK 32/14 Q1018 EDSB 191320Z 22010KT 190V250 CAVOK 32/15 Q1019 EDSB 191250Z 21013KT CAVOK 31/14 Q1019 EDSB 191220Z 20012KT 170V240 CAVOK 32/15 Q1019 EDSB 191150Z 20012KT CAVOK 31/14 Q1019 EDSB 191120Z 20011KT CAVOK 31/12 Q1019 EDSB 191050Z 21009KT 170V250 CAVOK 30/15 Q1019 EDSB 191020Z 21011KT 170V240 CAVOK 29/14 Q1020 EDSB 190950Z 21012KT CAVOK 28/15 Q1020 EDSB 190920Z 21010KT 170V230 CAVOK 27/14 Q1020 EDSB 190850Z 24004KT 170V300 CAVOK 25/14 Q1020 EDSB 190820Z 26003KT 200V340 CAVOK 24/14 Q1020 EDSB 190750Z VRB03KT CAVOK 23/14 Q1020 EDSB 190720Z VRB02KT CAVOK 22/15 Q1020 EDSB 190650Z VRB02KT CAVOK 20/14 Q1020 EDSB 190620Z VRB02KT CAVOK 19/14 Q1020 EDSB 190550Z VRB01KT CAVOK 17/14 Q1020 EDSB 190520Z 00000KT CAVOK 15/13 Q1020 EDSB 190450Z VRB01KT CAVOK 13/12 Q1019 EDSB 190420Z 26001KT 9999 BCFG NSC 12/11 Q1019 EDSB 190350Z 17002KT CAVOK 13/12 Q1019 EDSB 190320Z 20003KT 160V260 CAVOK 14/12 Q1019 EDSB 190250Z AUTO 26003KT 160V310 9999 // NCD 15/12 Q1019 EDSB 190220Z AUTO 20002KT 9999 // NCD 14/12 Q1019 EDSB 190150Z AUTO 21004KT 9999 // NCD 15/13 Q1019 EDSB 190120Z AUTO 20003KT 9999 // NCD 15/12 Q1019 EDSB 190050Z AUTO 00000KT 9999 // NCD 15/13 Q1019 EDSB 190020Z AUTO VRB01KT 9999 // NCD 16/13 Q1019 EDSB 182350Z AUTO VRB02KT 9999 // NCD 16/13 Q1019 EDSB 182320Z AUTO VRB01KT 9999 // NCD 20/11 Q1019 EDSB 182250Z AUTO 11007KT 9999 // NCD 23/11 Q1019 EDSB 182220Z AUTO VRB02KT 9999 // NCD 20/12 Q1019 EDSB 182150Z AUTO 12003KT 090V170 9999 // NCD 20/11 Q1019 EDSB 182120Z VRB02KT CAVOK 22/11 Q1019 EDSB 182050Z 07005KT 030V120 CAVOK 25/11 Q1019 EDSB 182020Z 06006KT CAVOK 24/11 Q1019 EDSB 181950Z 05006KT CAVOK 24/12 Q1019 EDSB 181920Z 05006KT CAVOK 25/11 Q1019 EDSB 181850Z 06005KT CAVOK 26/11 Q1019 EDSB 181820Z 07006KT CAVOK 28/10 Q1018 EDSB 181750Z 06008KT CAVOK 29/11 Q1018 EDSB 181720Z 05010KT CAVOK 30/10 Q1018 EDSB 181650Z 06009KT CAVOK 30/10 Q1018 EDSB 181620Z 34007KT 300V020 CAVOK 30/13 Q1018 EDSB 181550Z 35008KT 300V020 CAVOK 30/12 Q1019 EDSB 181520Z 34009KT CAVOK 30/12 Q1019 EDSB 181450Z 35009KT 310V020 CAVOK 30/12 Q1019 EDSB 181420Z 36009KT CAVOK 29/12 Q1019 EDSB 181350Z 35008KT 320V020 CAVOK 30/12 Q1020 EDSB 181320Z 35008KT 320V020 CAVOK 29/12 Q1020 EDSB 181250Z 01008KT 320V050 CAVOK 29/13 Q1020 EDSB 181220Z 35007KT 300V040 CAVOK 29/13 Q1020

METAR Messwerte "KARLSRUHE/BADEN" EDSB

Zurück zur Übersicht

Ortsname
Ländercode / m ü. NN
Zeit Temperatur Taupunkt Rel.
Luftfeuchte
Luftdruck:
Altimeter
NN
Station
Wind in Beaufort
(Knoten)
Sichtweite
(Meter)
Wolken
(Meter über Grund)
Wettererscheinung
KARLSRUHE/BADEN
DE 122
Fr 20.05. 01:50201573 %1021
1021
1006
N 2 (4)
NW - NNO
>= 10000Stark bewölkt (4900)
Wolkig (3700)
 
KARLSRUHE/BADEN
DE 122
Fr 20.05. 01:20201573 %1021
1021
1006
NW 2 (3)>= 10000Stark bewölkt (4600) 
KARLSRUHE/BADEN
DE 122
Fr 20.05. 00:50211569 %1021
1021
1006
Uml 1 (2)>= 10000Stark bewölkt (4600) 
KARLSRUHE/BADEN
DE 122
Fr 20.05. 00:20201468 %1021
1021
1006
NO 2 (4)>= 10000Stark bewölkt (4600) 
KARLSRUHE/BADEN
DE 122
Do 19.05. 23:20241557 %1021
1021
1006
NO 3 (9)>= 10000Nicht signifikant 
KARLSRUHE/BADEN
DE 122
Do 19.05. 22:50211569 %1021
1021
1006
NNO 2 (3)
NNW - NO
>= 10000Nicht signifikant 
KARLSRUHE/BADEN
DE 122
Do 19.05. 22:20211569 %1020
1020
1005
SW 2 (3)>= 10000Nicht signifikant 
KARLSRUHE/BADEN
DE 122
Do 19.05. 21:50241557 %1020
1020
1005
W 1 (2)>= 10000Leicht bewölkt Cb (1500) 
KARLSRUHE/BADEN
DE 122
Do 19.05. 21:20251554 %1019
1019
1004
S 2 (4)>= 10000Nicht signifikant 
KARLSRUHE/BADEN
DE 122
Do 19.05. 20:50261551 %1019
1018
1004
SW 2 (3)>= 10000Nicht signifikant 
KARLSRUHE/BADEN
DE 122
Do 19.05. 20:20271548 %1019
1018
1004
WSW 2 (3)
SSW - W
>= 10000Nicht signifikant 
KARLSRUHE/BADEN
DE 122
Do 19.05. 19:50281545 %1019
1018
1004
WSW 2 (5)>= 10000Nicht signifikant 
KARLSRUHE/BADEN
DE 122
Do 19.05. 19:20291543 %1019
1018
1004
WSW 3 (7)
SSW - W
>= 10000Nicht signifikant 
KARLSRUHE/BADEN
DE 122
Do 19.05. 18:50301643 %1019
1018
1004
WSW 4 (11)
SSW - WNW
>= 10000Nicht signifikant 
KARLSRUHE/BADEN
DE 122
Do 19.05. 18:20311640 %1018
1017
1003
W 2 (5)
SW - NNW
>= 10000Nicht signifikant 
KARLSRUHE/BADEN
DE 122
Do 19.05. 17:50301540 %1018
1017
1003
W 2 (6)
SW - NW
>= 10000Nicht signifikant 
KARLSRUHE/BADEN
DE 122
Do 19.05. 17:20321536 %1018
1017
1003
W 3 (7)
SW - NW
>= 10000Nicht signifikant 
KARLSRUHE/BADEN
DE 122
Do 19.05. 16:50321434 %1018
1017
1003
WSW 3 (9)
SSW - NW
>= 10000Nicht signifikant 
KARLSRUHE/BADEN
DE 122
Do 19.05. 16:20321332 %1018
1017
1003
SW 3 (10)
S - WSW
>= 10000Nicht signifikant 
KARLSRUHE/BADEN
DE 122
Do 19.05. 15:50321434 %1018
1017
1003
SSW 3 (7)
SSO - WSW
>= 10000Nicht signifikant 
KARLSRUHE/BADEN
DE 122
Do 19.05. 15:20321536 %1019
1018
1004
SW 3 (10)
S - WSW
>= 10000Nicht signifikant 
KARLSRUHE/BADEN
DE 122
Do 19.05. 14:50311436 %1019
1018
1004
SSW 4 (13)>= 10000Nicht signifikant 
KARLSRUHE/BADEN
DE 122
Do 19.05. 14:20321536 %1019
1018
1004
SSW 4 (12)
S - WSW
>= 10000Nicht signifikant 
KARLSRUHE/BADEN
DE 122
Do 19.05. 13:50311436 %1019
1018
1004
SSW 4 (12)>= 10000Nicht signifikant 
KARLSRUHE/BADEN
DE 122
Do 19.05. 13:20311231 %1019
1018
1004
SSW 4 (11)>= 10000Nicht signifikant 
KARLSRUHE/BADEN
DE 122
Do 19.05. 12:50301540 %1019
1018
1004
SSW 3 (9)
S - WSW
>= 10000Nicht signifikant 
KARLSRUHE/BADEN
DE 122
Do 19.05. 12:20291440 %1020
1019
1005
SSW 4 (11)
S - WSW
>= 10000Nicht signifikant 
KARLSRUHE/BADEN
DE 122
Do 19.05. 11:50281545 %1020
1019
1005
SSW 4 (12)>= 10000Nicht signifikant 
KARLSRUHE/BADEN
DE 122
Do 19.05. 11:20271445 %1020
1019
1005
SSW 3 (10)
S - SW
>= 10000Nicht signifikant 
KARLSRUHE/BADEN
DE 122
Do 19.05. 10:50251450 %1020
1020
1005
WSW 2 (4)
S - WNW
>= 10000Nicht signifikant 
KARLSRUHE/BADEN
DE 122
Do 19.05. 10:20241454 %1020
1020
1005
W 2 (3)
SSW - NNW
>= 10000Nicht signifikant 
KARLSRUHE/BADEN
DE 122
Do 19.05. 09:50231457 %1020
1020
1005
Uml 2 (3)>= 10000Nicht signifikant 
KARLSRUHE/BADEN
DE 122
Do 19.05. 09:20221565 %1020
1020
1005
Uml 1 (2)>= 10000Nicht signifikant 
KARLSRUHE/BADEN
DE 122
Do 19.05. 08:50201468 %1020
1020
1005
Uml 1 (2)>= 10000Nicht signifikant 
KARLSRUHE/BADEN
DE 122
Do 19.05. 08:20191473 %1020
1020
1005
Uml 1 (2)>= 10000Nicht signifikant 
KARLSRUHE/BADEN
DE 122
Do 19.05. 07:50171482 %1020
1020
1005
Uml 1 (1)>= 10000Nicht signifikant 
KARLSRUHE/BADEN
DE 122
Do 19.05. 07:20151388 %1020
1020
1005
Windstill>= 10000Nicht signifikant 
KARLSRUHE/BADEN
DE 122
Do 19.05. 06:50131294 %1019
1019
1004
Uml 1 (1)>= 10000Nicht signifikant 
KARLSRUHE/BADEN
DE 122
Do 19.05. 06:20121194 %1019
1019
1004
W 1 (1)>= 10000Nicht signifikantNebel-Bänke
KARLSRUHE/BADEN
DE 122
Do 19.05. 05:50131294 %1019
1019
1004
S 1 (2)>= 10000Nicht signifikant 
KARLSRUHE/BADEN
DE 122
Do 19.05. 05:20141288 %1019
1019
1004
SSW 2 (3)
SSO - W
>= 10000Nicht signifikant 
KARLSRUHE/BADEN
DE 122
Do 19.05. 04:50151282 %1019
1019
1004
W 2 (3)
SSO - NW
>= 10000  
KARLSRUHE/BADEN
DE 122
Do 19.05. 04:20141288 %1019
1019
1004
SSW 1 (2)>= 10000  
KARLSRUHE/BADEN
DE 122
Do 19.05. 03:50151388 %1019
1019
1004
SSW 2 (4)>= 10000  
KARLSRUHE/BADEN
DE 122
Do 19.05. 03:20151282 %1019
1019
1004
SSW 2 (3)>= 10000  
KARLSRUHE/BADEN
DE 122
Do 19.05. 02:50151388 %1019
1019
1004
Windstill>= 10000  
KARLSRUHE/BADEN
DE 122
Do 19.05. 02:20161382 %1019
1019
1004
Uml 1 (1)>= 10000  
KARLSRUHE/BADEN
DE 122
Do 19.05. 01:50161382 %1019
1019
1004
Uml 1 (2)>= 10000  
KARLSRUHE/BADEN
DE 122
Do 19.05. 01:20201156 %1019
1019
1004
Uml 1 (1)>= 10000  
KARLSRUHE/BADEN
DE 122
Do 19.05. 00:50231147 %1019
1019
1004
OSO 3 (7)>= 10000  
KARLSRUHE/BADEN
DE 122
Do 19.05. 00:20201260 %1019
1019
1004
Uml 1 (2)>= 10000  
KARLSRUHE/BADEN
DE 122
Mi 18.05. 23:50201156 %1019
1019
1004
OSO 2 (3)
O - S
>= 10000  
KARLSRUHE/BADEN
DE 122
Mi 18.05. 23:20221150 %1019
1019
1004
Uml 1 (2)>= 10000Nicht signifikant 
KARLSRUHE/BADEN
DE 122
Mi 18.05. 22:50251141 %1019
1019
1004
ONO 2 (5)
NNO - OSO
>= 10000Nicht signifikant 
KARLSRUHE/BADEN
DE 122
Mi 18.05. 22:20241144 %1019
1019
1004
ONO 2 (6)>= 10000Nicht signifikant 
KARLSRUHE/BADEN
DE 122
Mi 18.05. 21:50241247 %1019
1019
1004
NO 2 (6)>= 10000Nicht signifikant 
KARLSRUHE/BADEN
DE 122
Mi 18.05. 21:20251141 %1019
1019
1004
NO 2 (6)>= 10000Nicht signifikant 
KARLSRUHE/BADEN
DE 122
Mi 18.05. 20:50261139 %1019
1018
1004
ONO 2 (5)>= 10000Nicht signifikant 
KARLSRUHE/BADEN
DE 122
Mi 18.05. 20:20281032 %1018
1017
1003
ONO 2 (6)>= 10000Nicht signifikant 
KARLSRUHE/BADEN
DE 122
Mi 18.05. 19:50291133 %1018
1017
1003
ONO 3 (8)>= 10000Nicht signifikant 
KARLSRUHE/BADEN
DE 122
Mi 18.05. 19:20301029 %1018
1017
1003
NO 3 (10)>= 10000Nicht signifikant 
KARLSRUHE/BADEN
DE 122
Mi 18.05. 18:50301029 %1018
1017
1003
ONO 3 (9)>= 10000Nicht signifikant 
KARLSRUHE/BADEN
DE 122
Mi 18.05. 18:20301335 %1018
1017
1003
NNW 3 (7)
WNW - NNO
>= 10000Nicht signifikant 
KARLSRUHE/BADEN
DE 122
Mi 18.05. 17:50301233 %1019
1018
1004
N 3 (8)
WNW - NNO
>= 10000Nicht signifikant 
KARLSRUHE/BADEN
DE 122
Mi 18.05. 17:20301233 %1019
1018
1004
NNW 3 (9)>= 10000Nicht signifikant 
KARLSRUHE/BADEN
DE 122
Mi 18.05. 16:50301233 %1019
1018
1004
N 3 (9)
NW - NNO
>= 10000Nicht signifikant 
KARLSRUHE/BADEN
DE 122
Mi 18.05. 16:20291235 %1019
1018
1004
N 3 (9)>= 10000Nicht signifikant 
KARLSRUHE/BADEN
DE 122
Mi 18.05. 15:50301233 %1020
1019
1005
N 3 (8)
NW - NNO
>= 10000Nicht signifikant 
KARLSRUHE/BADEN
DE 122
Mi 18.05. 15:20291235 %1020
1019
1005
N 3 (8)
NW - NNO
>= 10000Nicht signifikant 
KARLSRUHE/BADEN
DE 122
Mi 18.05. 14:50291337 %1020
1019
1005
N 3 (8)
NW - NO
>= 10000Nicht signifikant 
KARLSRUHE/BADEN
DE 122
Mi 18.05. 14:20291337 %1020
1019
1005
N 3 (7)
WNW - NO
>= 10000Nicht signifikant 

Altimeter: Einstellung am Altimeter (Höhenmesser), die Höhe 0 muss auf diesen Luftdruckwert zeigen, damit das Gerät die Stationshöhe richtig anzeigt.

NN: Luftdruck reduziert auf "Normal Null", auf Meereshöhe, dieser von der Temperatur abhängige Wert wird bisweilen unkorrekt einfach als "Luftdruck" bezeichnet. Eigentlich nur eine fiktive Größe, die es erlaubt, Stationen auf unterschiedlichen Höhen miteinander zu vergleichen.

Station: Realer Luftdruck an der Station.